sensor_id;sensor_type;location;lat;lon;timestamp;noise_LAeq;noise_LA_min;noise_LA_max;noise_LA01;noise_LA95
68945;Laerm;55984;48.790;8.990;2022-11-11T00:00:22;47.28;46.19;49.93;;
68945;Laerm;55984;48.790;8.990;2022-11-11T00:02:48;47.28;45.98;49.49;;
68945;Laerm;55984;48.790;8.990;2022-11-11T00:05:14;47.27;46.14;49.68;;
68945;Laerm;55984;48.790;8.990;2022-11-11T00:07:40;47.27;46.13;49.55;;
68945;Laerm;55984;48.790;8.990;2022-11-11T00:10:05;47.27;46.21;50.58;;
68945;Laerm;55984;48.790;8.990;2022-11-11T00:12:31;47.27;46.19;49.79;;
68945;Laerm;55984;48.790;8.990;2022-11-11T00:14:56;47.27;46.17;49.77;;
68945;Laerm;55984;48.790;8.990;2022-11-11T00:17:22;47.27;46.06;49.45;;
68945;Laerm;55984;48.790;8.990;2022-11-11T00:20:08;47.27;46.16;49.58;;
68945;Laerm;55984;48.790;8.990;2022-11-11T00:22:52;47.27;46.11;50.12;;
68945;Laerm;55984;48.790;8.990;2022-11-11T00:25:37;47.27;46.03;49.91;;
68945;Laerm;55984;48.790;8.990;2022-11-11T00:28:02;47.27;46.16;49.50;;
68945;Laerm;55984;48.790;8.990;2022-11-11T00:30:27;47.28;46.20;49.56;;
68945;Laerm;55984;48.790;8.990;2022-11-11T00:32:53;47.27;46.19;49.89;;
68945;Laerm;55984;48.790;8.990;2022-11-11T00:35:18;47.27;46.08;49.99;;
68945;Laerm;55984;48.790;8.990;2022-11-11T00:38:07;47.27;46.02;49.75;;
68945;Laerm;55984;48.790;8.990;2022-11-11T00:40:33;47.27;46.19;49.96;;
68945;Laerm;55984;48.790;8.990;2022-11-11T00:42:58;47.27;46.19;49.55;;
68945;Laerm;55984;48.790;8.990;2022-11-11T00:45:23;47.26;46.13;49.63;;
68945;Laerm;55984;48.790;8.990;2022-11-11T00:47:48;47.28;46.12;49.78;;
68945;Laerm;55984;48.790;8.990;2022-11-11T00:50:32;47.28;46.12;49.10;;
68945;Laerm;55984;48.790;8.990;2022-11-11T00:53:22;47.28;46.17;49.60;;
68945;Laerm;55984;48.790;8.990;2022-11-11T00:55:47;47.26;46.19;49.80;;
68945;Laerm;55984;48.790;8.990;2022-11-11T00:58:13;47.27;46.06;49.48;;
68945;Laerm;55984;48.790;8.990;2022-11-11T01:00:41;47.28;46.20;50.19;;
68945;Laerm;55984;48.790;8.990;2022-11-11T01:03:06;47.27;45.70;49.62;;
68945;Laerm;55984;48.790;8.990;2022-11-11T01:05:31;47.26;46.09;49.31;;
68945;Laerm;55984;48.790;8.990;2022-11-11T01:07:56;47.28;46.16;50.02;;
68945;Laerm;55984;48.790;8.990;2022-11-11T01:10:22;47.27;46.15;49.51;;
68945;Laerm;55984;48.790;8.990;2022-11-11T01:13:04;47.27;46.07;50.08;;
68945;Laerm;55984;48.790;8.990;2022-11-11T01:15:36;47.27;46.19;49.40;;
68945;Laerm;55984;48.790;8.990;2022-11-11T01:18:01;47.26;45.98;49.75;;
68945;Laerm;55984;48.790;8.990;2022-11-11T01:20:27;47.28;46.13;49.41;;
68945;Laerm;55984;48.790;8.990;2022-11-11T01:22:52;47.28;46.05;49.75;;
68945;Laerm;55984;48.790;8.990;2022-11-11T01:25:17;47.27;46.14;49.70;;
68945;Laerm;55984;48.790;8.990;2022-11-11T01:27:42;47.27;46.02;49.78;;
68945;Laerm;55984;48.790;8.990;2022-11-11T01:30:08;47.28;46.19;49.87;;
68945;Laerm;55984;48.790;8.990;2022-11-11T01:32:33;47.27;46.07;49.78;;
68945;Laerm;55984;48.790;8.990;2022-11-11T01:34:58;47.27;46.17;49.92;;
68945;Laerm;55984;48.790;8.990;2022-11-11T01:37:24;47.28;46.18;49.62;;
68945;Laerm;55984;48.790;8.990;2022-11-11T01:39:49;47.28;46.12;49.36;;
68945;Laerm;55984;48.790;8.990;2022-11-11T01:42:14;47.28;46.20;49.83;;
68945;Laerm;55984;48.790;8.990;2022-11-11T01:44:43;47.27;46.05;49.56;;
68945;Laerm;55984;48.790;8.990;2022-11-11T01:47:09;47.28;46.13;49.28;;
68945;Laerm;55984;48.790;8.990;2022-11-11T01:49:55;47.28;46.09;50.06;;
68945;Laerm;55984;48.790;8.990;2022-11-11T01:52:25;47.28;46.09;49.74;;
68945;Laerm;55984;48.790;8.990;2022-11-11T01:54:54;47.28;46.02;49.59;;
68945;Laerm;55984;48.790;8.990;2022-11-11T02:00:08;47.27;46.12;50.01;;
68945;Laerm;55984;48.790;8.990;2022-11-11T02:05:08;47.28;46.13;49.16;;
68945;Laerm;55984;48.790;8.990;2022-11-11T02:07:54;47.27;46.05;49.86;;
68945;Laerm;55984;48.790;8.990;2022-11-11T02:10:23;47.28;46.24;50.04;;
68945;Laerm;55984;48.790;8.990;2022-11-11T02:12:49;47.27;46.03;49.87;;
68945;Laerm;55984;48.790;8.990;2022-11-11T02:15:33;47.27;46.00;49.34;;
68945;Laerm;55984;48.790;8.990;2022-11-11T02:17:59;47.28;46.13;50.13;;
68945;Laerm;55984;48.790;8.990;2022-11-11T02:20:26;47.26;46.06;50.12;;
68945;Laerm;55984;48.790;8.990;2022-11-11T02:23:06;47.27;46.18;49.24;;
68945;Laerm;55984;48.790;8.990;2022-11-11T02:25:35;47.27;46.04;49.52;;
68945;Laerm;55984;48.790;8.990;2022-11-11T02:28:03;47.28;45.94;49.83;;
68945;Laerm;55984;48.790;8.990;2022-11-11T02:30:30;47.27;46.17;49.86;;
68945;Laerm;55984;48.790;8.990;2022-11-11T02:32:57;47.28;46.14;49.74;;
68945;Laerm;55984;48.790;8.990;2022-11-11T02:37:54;47.28;46.17;49.95;;
68945;Laerm;55984;48.790;8.990;2022-11-11T02:40:23;47.28;46.21;49.89;;
68945;Laerm;55984;48.790;8.990;2022-11-11T02:42:50;47.28;46.15;49.50;;
68945;Laerm;55984;48.790;8.990;2022-11-11T02:45:15;47.27;46.19;49.32;;
68945;Laerm;55984;48.790;8.990;2022-11-11T02:47:41;47.27;46.27;50.14;;
68945;Laerm;55984;48.790;8.990;2022-11-11T02:50:06;47.27;46.24;49.70;;
68945;Laerm;55984;48.790;8.990;2022-11-11T02:52:32;47.26;46.26;49.92;;
68945;Laerm;55984;48.790;8.990;2022-11-11T02:54:58;47.27;46.17;49.46;;
68945;Laerm;55984;48.790;8.990;2022-11-11T02:57:23;47.27;46.25;49.54;;
68945;Laerm;55984;48.790;8.990;2022-11-11T02:59:49;47.28;46.27;49.51;;
68945;Laerm;55984;48.790;8.990;2022-11-11T03:02:14;47.28;45.77;49.69;;
68945;Laerm;55984;48.790;8.990;2022-11-11T03:04:39;47.27;46.19;48.99;;
68945;Laerm;55984;48.790;8.990;2022-11-11T03:07:05;47.27;46.19;50.08;;
68945;Laerm;55984;48.790;8.990;2022-11-11T03:09:31;47.27;45.96;49.70;;
68945;Laerm;55984;48.790;8.990;2022-11-11T03:11:56;47.27;46.12;49.69;;
68945;Laerm;55984;48.790;8.990;2022-11-11T03:14:22;47.27;46.18;49.61;;
68945;Laerm;55984;48.790;8.990;2022-11-11T03:16:47;47.26;45.94;49.69;;
68945;Laerm;55984;48.790;8.990;2022-11-11T03:19:31;47.27;46.02;49.93;;
68945;Laerm;55984;48.790;8.990;2022-11-11T03:21:58;47.26;46.18;49.94;;
68945;Laerm;55984;48.790;8.990;2022-11-11T03:24:24;47.27;46.31;50.01;;
68945;Laerm;55984;48.790;8.990;2022-11-11T03:26:49;47.27;46.22;50.04;;
68945;Laerm;55984;48.790;8.990;2022-11-11T03:29:21;47.28;46.22;49.28;;
68945;Laerm;55984;48.790;8.990;2022-11-11T03:31:46;47.27;46.19;49.57;;
68945;Laerm;55984;48.790;8.990;2022-11-11T03:34:11;47.27;46.19;49.67;;
68945;Laerm;55984;48.790;8.990;2022-11-11T03:36:43;47.27;46.08;50.02;;
68945;Laerm;55984;48.790;8.990;2022-11-11T03:39:27;47.27;46.07;49.40;;
68945;Laerm;55984;48.790;8.990;2022-11-11T03:41:53;47.27;46.11;49.28;;
68945;Laerm;55984;48.790;8.990;2022-11-11T03:44:18;47.27;46.26;50.12;;
68945;Laerm;55984;48.790;8.990;2022-11-11T03:46:44;47.28;46.12;49.96;;
68945;Laerm;55984;48.790;8.990;2022-11-11T03:49:09;47.28;46.27;50.02;;
68945;Laerm;55984;48.790;8.990;2022-11-11T03:51:35;47.27;46.11;49.77;;
68945;Laerm;55984;48.790;8.990;2022-11-11T03:54:00;47.27;45.99;49.91;;
68945;Laerm;55984;48.790;8.990;2022-11-11T03:56:25;47.28;46.06;50.09;;
68945;Laerm;55984;48.790;8.990;2022-11-11T03:58:51;47.26;46.07;50.27;;
68945;Laerm;55984;48.790;8.990;2022-11-11T04:01:16;47.27;46.10;49.78;;
68945;Laerm;55984;48.790;8.990;2022-11-11T04:04:02;47.28;46.20;50.07;;
68945;Laerm;55984;48.790;8.990;2022-11-11T04:06:46;47.27;46.11;49.54;;
68945;Laerm;55984;48.790;8.990;2022-11-11T04:09:30;47.27;46.22;50.02;;
68945;Laerm;55984;48.790;8.990;2022-11-11T04:12:14;47.27;46.23;49.55;;
68945;Laerm;55984;48.790;8.990;2022-11-11T04:14:39;47.28;46.11;49.61;;
68945;Laerm;55984;48.790;8.990;2022-11-11T04:17:24;47.27;46.17;49.52;;
68945;Laerm;55984;48.790;8.990;2022-11-11T04:19:49;47.27;46.10;49.88;;
68945;Laerm;55984;48.790;8.990;2022-11-11T04:22:38;47.28;46.21;49.38;;
68945;Laerm;55984;48.790;8.990;2022-11-11T04:25:04;47.27;46.13;50.40;;
68945;Laerm;55984;48.790;8.990;2022-11-11T04:27:48;47.27;46.03;50.15;;
68945;Laerm;55984;48.790;8.990;2022-11-11T04:30:34;47.28;46.13;49.94;;
68945;Laerm;55984;48.790;8.990;2022-11-11T04:32:59;47.28;46.23;49.40;;
68945;Laerm;55984;48.790;8.990;2022-11-11T04:35:24;47.28;46.26;49.27;;
68945;Laerm;55984;48.790;8.990;2022-11-11T04:37:50;47.27;46.09;49.82;;
68945;Laerm;55984;48.790;8.990;2022-11-11T04:40:16;47.28;46.10;50.07;;
68945;Laerm;55984;48.790;8.990;2022-11-11T04:43:00;47.27;46.22;49.88;;
68945;Laerm;55984;48.790;8.990;2022-11-11T04:45:26;47.27;46.15;49.90;;
68945;Laerm;55984;48.790;8.990;2022-11-11T04:48:06;47.27;45.99;49.54;;
68945;Laerm;55984;48.790;8.990;2022-11-11T04:50:32;47.27;46.24;50.11;;
68945;Laerm;55984;48.790;8.990;2022-11-11T04:52:59;47.27;46.00;49.62;;
68945;Laerm;55984;48.790;8.990;2022-11-11T04:55:25;47.27;46.03;50.14;;
68945;Laerm;55984;48.790;8.990;2022-11-11T04:58:09;47.28;46.15;50.29;;
68945;Laerm;55984;48.790;8.990;2022-11-11T05:00:35;47.28;46.10;49.39;;
68945;Laerm;55984;48.790;8.990;2022-11-11T05:03:01;47.27;46.03;49.37;;
68945;Laerm;55984;48.790;8.990;2022-11-11T05:05:57;47.27;45.99;49.85;;
68945;Laerm;55984;48.790;8.990;2022-11-11T05:08:43;47.26;46.22;49.57;;
68945;Laerm;55984;48.790;8.990;2022-11-11T05:11:29;47.27;46.12;49.61;;
68945;Laerm;55984;48.790;8.990;2022-11-11T05:13:57;47.27;45.94;49.78;;
68945;Laerm;55984;48.790;8.990;2022-11-11T05:16:49;47.26;46.14;50.02;;
68945;Laerm;55984;48.790;8.990;2022-11-11T05:19:33;47.27;46.13;50.05;;
68945;Laerm;55984;48.790;8.990;2022-11-11T05:22:27;47.27;46.03;49.77;;
68945;Laerm;55984;48.790;8.990;2022-11-11T05:24:53;47.27;46.06;49.49;;
68945;Laerm;55984;48.790;8.990;2022-11-11T05:27:37;47.27;46.27;50.04;;
68945;Laerm;55984;48.790;8.990;2022-11-11T05:30:03;47.27;46.16;49.96;;
68945;Laerm;55984;48.790;8.990;2022-11-11T05:32:29;47.26;46.08;50.29;;
68945;Laerm;55984;48.790;8.990;2022-11-11T05:34:54;47.26;45.98;49.73;;
68945;Laerm;55984;48.790;8.990;2022-11-11T05:37:20;47.27;46.18;49.59;;
68945;Laerm;55984;48.790;8.990;2022-11-11T05:39:56;47.26;46.07;49.55;;
68945;Laerm;55984;48.790;8.990;2022-11-11T05:42:22;47.27;46.05;49.46;;
68945;Laerm;55984;48.790;8.990;2022-11-11T05:44:47;47.26;46.02;49.17;;
68945;Laerm;55984;48.790;8.990;2022-11-11T05:47:13;47.28;46.17;49.07;;
68945;Laerm;55984;48.790;8.990;2022-11-11T05:49:38;47.27;46.12;49.63;;
68945;Laerm;55984;48.790;8.990;2022-11-11T05:52:04;47.28;46.28;49.45;;
68945;Laerm;55984;48.790;8.990;2022-11-11T05:54:30;47.27;46.12;49.64;;
68945;Laerm;55984;48.790;8.990;2022-11-11T05:56:55;47.27;46.20;49.93;;
68945;Laerm;55984;48.790;8.990;2022-11-11T05:59:21;47.28;46.20;49.92;;
68945;Laerm;55984;48.790;8.990;2022-11-11T06:01:46;47.27;46.14;49.59;;
68945;Laerm;55984;48.790;8.990;2022-11-11T06:04:12;47.27;46.03;49.79;;
68945;Laerm;55984;48.790;8.990;2022-11-11T06:06:37;47.26;46.07;49.19;;
68945;Laerm;55984;48.790;8.990;2022-11-11T06:09:03;47.26;46.11;50.04;;
68945;Laerm;55984;48.790;8.990;2022-11-11T06:11:28;47.27;46.25;49.73;;
68945;Laerm;55984;48.790;8.990;2022-11-11T06:13:55;47.27;45.89;49.98;;
68945;Laerm;55984;48.790;8.990;2022-11-11T06:16:21;47.27;46.23;49.93;;
68945;Laerm;55984;48.790;8.990;2022-11-11T06:18:46;47.27;46.14;49.53;;
68945;Laerm;55984;48.790;8.990;2022-11-11T06:21:12;47.27;46.13;49.73;;
68945;Laerm;55984;48.790;8.990;2022-11-11T06:23:37;47.27;46.25;50.35;;
68945;Laerm;55984;48.790;8.990;2022-11-11T06:26:03;47.26;46.14;49.70;;
68945;Laerm;55984;48.790;8.990;2022-11-11T06:28:51;47.26;46.15;49.57;;
68945;Laerm;55984;48.790;8.990;2022-11-11T06:31:23;47.27;46.06;49.76;;
68945;Laerm;55984;48.790;8.990;2022-11-11T06:33:49;47.27;46.03;49.25;;
68945;Laerm;55984;48.790;8.990;2022-11-11T06:36:16;47.26;46.15;49.43;;
68945;Laerm;55984;48.790;8.990;2022-11-11T06:38:44;47.27;46.18;49.70;;
68945;Laerm;55984;48.790;8.990;2022-11-11T06:41:10;47.26;45.92;50.05;;
68945;Laerm;55984;48.790;8.990;2022-11-11T06:43:37;47.26;46.02;49.97;;
68945;Laerm;55984;48.790;8.990;2022-11-11T06:46:03;47.26;46.03;48.97;;
68945;Laerm;55984;48.790;8.990;2022-11-11T06:48:29;47.27;45.93;49.48;;
68945;Laerm;55984;48.790;8.990;2022-11-11T06:51:00;47.26;45.87;49.73;;
68945;Laerm;55984;48.790;8.990;2022-11-11T06:53:26;47.27;45.92;49.92;;
68945;Laerm;55984;48.790;8.990;2022-11-11T06:55:53;47.26;46.05;49.01;;
68945;Laerm;55984;48.790;8.990;2022-11-11T06:58:19;47.26;46.13;49.79;;
68945;Laerm;55984;48.790;8.990;2022-11-11T07:00:46;47.27;46.05;49.40;;
68945;Laerm;55984;48.790;8.990;2022-11-11T07:03:14;47.27;46.18;50.19;;
68945;Laerm;55984;48.790;8.990;2022-11-11T07:05:41;47.26;46.23;49.63;;
68945;Laerm;55984;48.790;8.990;2022-11-11T07:08:09;47.26;45.97;49.80;;
68945;Laerm;55984;48.790;8.990;2022-11-11T07:10:36;47.26;45.95;49.38;;
68945;Laerm;55984;48.790;8.990;2022-11-11T07:13:03;47.26;46.21;49.84;;
68945;Laerm;55984;48.790;8.990;2022-11-11T07:15:29;47.26;46.05;49.58;;
68945;Laerm;55984;48.790;8.990;2022-11-11T07:17:54;47.26;46.10;50.11;;
68945;Laerm;55984;48.790;8.990;2022-11-11T07:20:19;47.26;45.92;49.95;;
68945;Laerm;55984;48.790;8.990;2022-11-11T07:22:45;47.26;46.03;49.58;;
68945;Laerm;55984;48.790;8.990;2022-11-11T07:25:11;47.27;46.12;49.91;;
68945;Laerm;55984;48.790;8.990;2022-11-11T07:27:40;47.27;46.09;49.93;;
68945;Laerm;55984;48.790;8.990;2022-11-11T07:30:07;47.25;46.13;49.77;;
68945;Laerm;55984;48.790;8.990;2022-11-11T07:32:33;47.26;46.17;49.89;;
68945;Laerm;55984;48.790;8.990;2022-11-11T07:34:58;47.26;46.07;49.78;;
68945;Laerm;55984;48.790;8.990;2022-11-11T07:37:23;47.26;46.09;49.88;;
68945;Laerm;55984;48.790;8.990;2022-11-11T07:39:49;47.26;46.08;50.07;;
68945;Laerm;55984;48.790;8.990;2022-11-11T07:42:14;47.26;46.13;49.86;;
68945;Laerm;55984;48.790;8.990;2022-11-11T07:44:40;47.27;46.11;49.92;;
68945;Laerm;55984;48.790;8.990;2022-11-11T07:47:05;47.25;46.08;49.26;;
68945;Laerm;55984;48.790;8.990;2022-11-11T07:49:30;47.26;46.20;49.65;;
68945;Laerm;55984;48.790;8.990;2022-11-11T07:51:56;47.26;46.12;50.14;;
68945;Laerm;55984;48.790;8.990;2022-11-11T07:54:22;47.27;46.13;49.98;;
68945;Laerm;55984;48.790;8.990;2022-11-11T07:56:47;47.26;46.05;49.61;;
68945;Laerm;55984;48.790;8.990;2022-11-11T07:59:13;47.26;46.02;49.82;;
68945;Laerm;55984;48.790;8.990;2022-11-11T08:01:38;47.26;46.05;49.78;;
68945;Laerm;55984;48.790;8.990;2022-11-11T08:04:03;47.26;46.18;49.73;;
68945;Laerm;55984;48.790;8.990;2022-11-11T08:06:29;47.25;45.85;50.22;;
68945;Laerm;55984;48.790;8.990;2022-11-11T08:08:54;47.25;46.15;49.67;;
68945;Laerm;55984;48.790;8.990;2022-11-11T08:11:20;47.26;46.19;49.59;;
68945;Laerm;55984;48.790;8.990;2022-11-11T08:14:05;47.25;46.07;50.06;;
68945;Laerm;55984;48.790;8.990;2022-11-11T08:16:30;47.26;46.07;50.11;;
68945;Laerm;55984;48.790;8.990;2022-11-11T08:18:55;47.25;46.03;49.86;;
68945;Laerm;55984;48.790;8.990;2022-11-11T08:21:23;47.26;46.03;49.61;;
68945;Laerm;55984;48.790;8.990;2022-11-11T08:23:48;47.25;46.14;50.07;;
68945;Laerm;55984;48.790;8.990;2022-11-11T08:26:14;47.25;45.96;50.11;;
68945;Laerm;55984;48.790;8.990;2022-11-11T08:28:39;47.25;46.17;49.80;;
68945;Laerm;55984;48.790;8.990;2022-11-11T08:31:04;47.25;46.08;50.15;;
68945;Laerm;55984;48.790;8.990;2022-11-11T08:33:30;47.25;46.09;49.87;;
68945;Laerm;55984;48.790;8.990;2022-11-11T08:35:58;47.25;46.03;49.81;;
68945;Laerm;55984;48.790;8.990;2022-11-11T08:38:23;47.25;46.13;49.59;;
68945;Laerm;55984;48.790;8.990;2022-11-11T08:40:50;47.26;46.04;49.84;;
68945;Laerm;55984;48.790;8.990;2022-11-11T08:43:15;47.25;45.81;49.95;;
68945;Laerm;55984;48.790;8.990;2022-11-11T08:45:41;47.25;46.12;50.03;;
68945;Laerm;55984;48.790;8.990;2022-11-11T08:48:07;47.25;46.10;49.95;;
68945;Laerm;55984;48.790;8.990;2022-11-11T08:50:38;47.25;46.11;50.13;;
68945;Laerm;55984;48.790;8.990;2022-11-11T08:53:06;47.25;45.95;49.93;;
68945;Laerm;55984;48.790;8.990;2022-11-11T08:55:33;47.25;46.12;49.71;;
68945;Laerm;55984;48.790;8.990;2022-11-11T08:58:00;47.25;45.93;49.27;;
68945;Laerm;55984;48.790;8.990;2022-11-11T09:00:28;47.25;45.99;49.86;;
68945;Laerm;55984;48.790;8.990;2022-11-11T09:02:53;47.24;46.09;50.00;;
68945;Laerm;55984;48.790;8.990;2022-11-11T09:05:19;47.24;46.03;50.25;;
68945;Laerm;55984;48.790;8.990;2022-11-11T09:07:45;47.24;46.19;50.16;;
68945;Laerm;55984;48.790;8.990;2022-11-11T09:10:10;47.24;46.23;50.01;;
68945;Laerm;55984;48.790;8.990;2022-11-11T09:12:36;47.23;45.89;50.16;;
68945;Laerm;55984;48.790;8.990;2022-11-11T09:15:02;47.22;46.03;49.85;;
68945;Laerm;55984;48.790;8.990;2022-11-11T09:17:27;47.23;46.01;50.12;;
68945;Laerm;55984;48.790;8.990;2022-11-11T09:19:53;47.22;46.11;50.30;;
68945;Laerm;55984;48.790;8.990;2022-11-11T09:22:18;47.22;45.94;49.80;;
68945;Laerm;55984;48.790;8.990;2022-11-11T09:24:48;47.24;46.05;50.02;;
68945;Laerm;55984;48.790;8.990;2022-11-11T09:27:21;47.29;46.00;49.79;;
68945;Laerm;55984;48.790;8.990;2022-11-11T09:29:47;47.41;46.14;50.26;;
68945;Laerm;55984;48.790;8.990;2022-11-11T09:32:12;47.46;46.41;49.82;;
68945;Laerm;55984;48.790;8.990;2022-11-11T09:34:38;47.60;46.24;50.17;;
68945;Laerm;55984;48.790;8.990;2022-11-11T09:37:03;47.78;46.48;50.46;;
68945;Laerm;55984;48.790;8.990;2022-11-11T09:39:29;47.90;46.42;50.47;;
68945;Laerm;55984;48.790;8.990;2022-11-11T09:42:03;47.95;46.47;50.80;;
68945;Laerm;55984;48.790;8.990;2022-11-11T09:50:24;48.20;46.84;51.02;;
68945;Laerm;55984;48.790;8.990;2022-11-11T09:55:55;48.16;46.65;50.44;;
68945;Laerm;55984;48.790;8.990;2022-11-11T10:01:24;48.24;46.76;50.30;;
68945;Laerm;55984;48.790;8.990;2022-11-11T10:04:00;48.35;46.88;50.77;;
68945;Laerm;55984;48.790;8.990;2022-11-11T10:06:30;48.39;46.77;50.68;;
68945;Laerm;55984;48.790;8.990;2022-11-11T10:14:14;48.24;46.64;51.22;;
68945;Laerm;55984;48.790;8.990;2022-11-11T10:21:50;48.55;47.06;50.67;;
68945;Laerm;55984;48.790;8.990;2022-11-11T10:24:28;48.55;46.83;52.96;;
68945;Laerm;55984;48.790;8.990;2022-11-11T10:26:54;48.77;46.96;51.58;;
68945;Laerm;55984;48.790;8.990;2022-11-11T10:29:21;49.53;47.48;51.92;;
68945;Laerm;55984;48.790;8.990;2022-11-11T10:32:02;49.30;47.36;52.08;;
68945;Laerm;55984;48.790;8.990;2022-11-11T10:34:33;49.40;47.40;52.07;;
68945;Laerm;55984;48.790;8.990;2022-11-11T10:37:00;49.61;47.31;52.41;;
68945;Laerm;55984;48.790;8.990;2022-11-11T10:39:57;49.76;47.59;52.44;;
68945;Laerm;55984;48.790;8.990;2022-11-11T10:42:24;50.29;47.85;53.55;;
68945;Laerm;55984;48.790;8.990;2022-11-11T10:44:55;51.17;48.80;53.78;;
68945;Laerm;55984;48.790;8.990;2022-11-11T10:47:36;51.09;48.61;54.29;;
68945;Laerm;55984;48.790;8.990;2022-11-11T10:50:19;50.92;47.93;54.06;;
68945;Laerm;55984;48.790;8.990;2022-11-11T10:53:00;51.19;48.75;54.19;;
68945;Laerm;55984;48.790;8.990;2022-11-11T10:55:50;50.88;48.32;54.51;;
68945;Laerm;55984;48.790;8.990;2022-11-11T10:58:26;50.82;48.88;53.72;;
68945;Laerm;55984;48.790;8.990;2022-11-11T11:00:55;50.91;48.91;53.84;;
68945;Laerm;55984;48.790;8.990;2022-11-11T11:03:29;51.34;48.87;54.13;;
68945;Laerm;55984;48.790;8.990;2022-11-11T11:06:01;50.98;48.96;54.11;;
68945;Laerm;55984;48.790;8.990;2022-11-11T11:08:34;50.76;48.31;54.62;;
68945;Laerm;55984;48.790;8.990;2022-11-11T11:11:06;51.03;49.00;53.22;;
68945;Laerm;55984;48.790;8.990;2022-11-11T11:14:08;51.05;49.23;53.75;;
68945;Laerm;55984;48.790;8.990;2022-11-11T11:16:42;51.57;48.42;54.96;;
68945;Laerm;55984;48.790;8.990;2022-11-11T11:22:11;52.15;48.75;55.36;;
68945;Laerm;55984;48.790;8.990;2022-11-11T11:24:36;53.20;47.95;56.32;;
68945;Laerm;55984;48.790;8.990;2022-11-11T11:27:07;52.87;48.61;56.27;;
68945;Laerm;55984;48.790;8.990;2022-11-11T11:29:36;52.74;48.51;56.94;;
68945;Laerm;55984;48.790;8.990;2022-11-11T11:32:27;52.57;47.87;56.69;;
68945;Laerm;55984;48.790;8.990;2022-11-11T11:34:54;52.21;48.08;55.34;;
68945;Laerm;55984;48.790;8.990;2022-11-11T11:37:22;52.39;48.20;55.37;;
68945;Laerm;55984;48.790;8.990;2022-11-11T11:40:04;51.73;48.35;54.59;;
68945;Laerm;55984;48.790;8.990;2022-11-11T11:42:37;52.05;48.54;54.78;;
68945;Laerm;55984;48.790;8.990;2022-11-11T11:47:47;51.78;48.44;54.33;;
68945;Laerm;55984;48.790;8.990;2022-11-11T11:50:34;52.03;47.85;54.38;;
68945;Laerm;55984;48.790;8.990;2022-11-11T11:53:21;51.60;48.37;54.55;;
68945;Laerm;55984;48.790;8.990;2022-11-11T11:56:14;49.53;47.17;53.80;;
68945;Laerm;55984;48.790;8.990;2022-11-11T11:59:01;51.46;47.97;54.49;;
68945;Laerm;55984;48.790;8.990;2022-11-11T12:17:27;52.70;49.17;56.05;;
68945;Laerm;55984;48.790;8.990;2022-11-11T12:20:13;53.69;49.42;56.84;;
68945;Laerm;55984;48.790;8.990;2022-11-11T12:22:47;53.50;49.29;56.51;;
68945;Laerm;55984;48.790;8.990;2022-11-11T12:25:20;53.37;48.68;56.12;;
68945;Laerm;55984;48.790;8.990;2022-11-11T12:30:24;53.07;49.05;56.75;;
68945;Laerm;55984;48.790;8.990;2022-11-11T12:33:09;53.24;49.36;57.11;;
68945;Laerm;55984;48.790;8.990;2022-11-11T12:38:40;53.20;49.63;57.42;;
68945;Laerm;55984;48.790;8.990;2022-11-11T13:00:18;50.79;47.44;54.02;;
68945;Laerm;55984;48.790;8.990;2022-11-11T13:05:51;52.18;48.61;54.78;;
68945;Laerm;55984;48.790;8.990;2022-11-11T13:17:17;51.76;49.04;55.60;;
68945;Laerm;55984;48.790;8.990;2022-11-11T13:19:52;51.82;49.18;56.51;;
68945;Laerm;55984;48.790;8.990;2022-11-11T13:22:25;52.71;49.62;56.06;;
68945;Laerm;55984;48.790;8.990;2022-11-11T13:24:51;50.95;48.80;54.60;;
68945;Laerm;55984;48.790;8.990;2022-11-11T13:27:25;49.84;48.12;52.63;;
68945;Laerm;55984;48.790;8.990;2022-11-11T13:30:59;49.31;47.55;51.70;;
68945;Laerm;55984;48.790;8.990;2022-11-11T13:33:19;49.29;47.73;51.44;;
68945;Laerm;55984;48.790;8.990;2022-11-11T13:38:29;49.05;46.96;51.93;;
68945;Laerm;55984;48.790;8.990;2022-11-11T13:40:58;49.45;47.70;52.10;;
68945;Laerm;55984;48.790;8.990;2022-11-11T13:43:33;49.83;47.78;52.41;;
68945;Laerm;55984;48.790;8.990;2022-11-11T13:46:02;50.05;47.63;52.15;;
68945;Laerm;55984;48.790;8.990;2022-11-11T13:48:35;51.00;48.50;53.32;;
68945;Laerm;55984;48.790;8.990;2022-11-11T13:53:46;51.71;49.13;53.88;;
68945;Laerm;55984;48.790;8.990;2022-11-11T13:56:22;50.85;48.46;53.33;;
68945;Laerm;55984;48.790;8.990;2022-11-11T13:58:50;51.41;49.73;53.35;;
68945;Laerm;55984;48.790;8.990;2022-11-11T14:01:16;50.86;49.34;52.50;;
68945;Laerm;55984;48.790;8.990;2022-11-11T14:11:28;50.06;48.20;51.95;;
68945;Laerm;55984;48.790;8.990;2022-11-11T14:13:56;50.00;48.40;51.94;;
68945;Laerm;55984;48.790;8.990;2022-11-11T14:21:48;49.76;48.03;51.88;;
68945;Laerm;55984;48.790;8.990;2022-11-11T14:29:54;49.86;48.72;51.75;;
68945;Laerm;55984;48.790;8.990;2022-11-11T14:38:17;49.82;48.54;51.29;;
68945;Laerm;55984;48.790;8.990;2022-11-11T14:40:45;49.79;48.15;51.44;;
68945;Laerm;55984;48.790;8.990;2022-11-11T14:43:38;49.65;48.30;51.25;;
68945;Laerm;55984;48.790;8.990;2022-11-11T14:46:06;49.70;48.35;51.35;;
68945;Laerm;55984;48.790;8.990;2022-11-11T14:54:05;49.35;47.99;51.10;;
68945;Laerm;55984;48.790;8.990;2022-11-11T14:56:39;49.30;47.98;51.35;;
68945;Laerm;55984;48.790;8.990;2022-11-11T14:59:07;49.23;47.94;51.11;;
68945;Laerm;55984;48.790;8.990;2022-11-11T15:01:35;49.32;47.73;51.20;;
68945;Laerm;55984;48.790;8.990;2022-11-11T15:04:05;49.21;47.91;51.33;;
68945;Laerm;55984;48.790;8.990;2022-11-11T15:06:52;49.19;47.55;51.52;;
68945;Laerm;55984;48.790;8.990;2022-11-11T15:15:25;48.87;47.41;51.00;;
68945;Laerm;55984;48.790;8.990;2022-11-11T15:20:56;48.43;47.07;50.62;;
68945;Laerm;55984;48.790;8.990;2022-11-11T15:26:17;48.27;46.99;50.74;;
68945;Laerm;55984;48.790;8.990;2022-11-11T15:29:12;48.21;47.05;51.15;;
68945;Laerm;55984;48.790;8.990;2022-11-11T15:31:53;48.08;46.71;50.45;;
68945;Laerm;55984;48.790;8.990;2022-11-11T15:34:27;47.97;46.31;50.16;;
68945;Laerm;55984;48.790;8.990;2022-11-11T15:36:58;47.96;46.73;50.49;;
68945;Laerm;55984;48.790;8.990;2022-11-11T15:39:39;47.96;46.33;50.25;;
68945;Laerm;55984;48.790;8.990;2022-11-11T15:42:14;47.90;46.68;50.32;;
68945;Laerm;55984;48.790;8.990;2022-11-11T15:44:43;47.85;46.61;50.08;;
68945;Laerm;55984;48.790;8.990;2022-11-11T15:47:12;47.80;46.61;50.63;;
68945;Laerm;55984;48.790;8.990;2022-11-11T15:49:46;47.83;46.02;49.57;;
68945;Laerm;55984;48.790;8.990;2022-11-11T15:54:47;47.77;46.68;50.29;;
68945;Laerm;55984;48.790;8.990;2022-11-11T15:59:50;47.74;46.54;50.30;;
68945;Laerm;55984;48.790;8.990;2022-11-11T16:02:24;47.76;46.47;50.12;;
68945;Laerm;55984;48.790;8.990;2022-11-11T16:05:01;47.68;46.32;50.56;;
68945;Laerm;55984;48.790;8.990;2022-11-11T16:07:34;47.67;46.55;50.82;;
68945;Laerm;55984;48.790;8.990;2022-11-11T16:10:07;47.68;46.42;49.76;;
68945;Laerm;55984;48.790;8.990;2022-11-11T16:12:55;47.61;46.34;50.34;;
68945;Laerm;55984;48.790;8.990;2022-11-11T16:15:25;47.61;46.39;50.06;;
68945;Laerm;55984;48.790;8.990;2022-11-11T16:17:59;47.62;46.51;50.86;;
68945;Laerm;55984;48.790;8.990;2022-11-11T16:20:50;47.58;46.42;49.88;;
68945;Laerm;55984;48.790;8.990;2022-11-11T16:23:19;47.59;46.42;49.74;;